Pagrindinis puslapis
METAR-TAF:

METAR-TAF

Oro uostai :

Nalčikas, Rusija

platuma: 43-30-46N, ilguma: 043-38-12E, Aukštis: 445 m

Dabartinis oras

Ataskaita buvo paskelbta 38 minutes, ne 10:30 UTC
Vėjas 2 kt iš Šiaurės Rytų
Temperatūra 3°C
Drėgmė 87%
Slėgis 1025 hPa
Matomumas: 5000 m
Su prošvaistėmis ne aukštis 500 ft
migla

METAR: URMN 271030Z 05001MPS 5000 HZ BKN005 03/01 Q1025 R24/010070 NOSIG RMK MT OBSC OBST OBSC QFE732

Laikas: 15:08 (11:08 UTC)

Prognozė

Ataskaita buvo paskelbta 3 valandos ir 8 minutes, ne 08:00 UTC
Prognozė galioja nuo 27 metu 09 UTC su 27 metu 18 UTC
Vėjas 6 kt iš Rytų/Šiaurės Rytų
Matomumas: 6000 m
Su prošvaistėmis ne aukštis 1500 ft
Laikinai
nuo 27 metu 09 UTC su 27 metu 15 UTC
Matomumas: 2000 m
Apsiniaukę ne aukštis 500 ft
rūkana
Laikinai
nuo 27 metu 15 UTC su 27 metu 18 UTC
Matomumas: 0800 m
Apsiniaukę ne aukštis 200 ft
rūkas

TAF: URMN 270800Z 2709/2718 06003MPS 6000 BKN015 TEMPO 2709/2715 2000 BR OVC005 TEMPO 2715/2718 0800 FG OVC002

Orai ataskaitas ir orų prognozės (METAR, TAF).

turimą stotys yra geltonos ir raudonos taškus žemėlapyje.

Perkelti pele per norėdami pamatyti stoties vardą.

Tada spustelėkite, norėdami matyti oro stebėjimo ir prognozės.

Norėdami pakeisti žemėlapį: spustelėkite ant žalios mygtukų su juodo kryžiaus žemyn,; žalią mygtuką su brūkšneliu, jei norite nutolinti; arba žalių rodyklių gretimoms žemėlapius.


METAR-TAF: